sensor_id;sensor_type;location;lat;lon;timestamp;pressure;altitude;pressure_sealevel;temperature;humidity
64853;BME280;56050;55.558;-4.644;2023-03-03T00:01:04;103248.84;;;8.19;60.76
64853;BME280;56050;55.558;-4.644;2023-03-03T00:03:30;103255.00;;;8.20;60.73
64853;BME280;56050;55.558;-4.644;2023-03-03T00:05:56;103246.97;;;8.20;60.69
64853;BME280;56050;55.558;-4.644;2023-03-03T00:08:22;103251.53;;;8.19;60.72
64853;BME280;56050;55.558;-4.644;2023-03-03T00:10:47;103251.53;;;8.19;60.83
64853;BME280;56050;55.558;-4.644;2023-03-03T00:13:17;103253.09;;;8.20;60.89
64853;BME280;56050;55.558;-4.644;2023-03-03T00:15:44;103258.00;;;8.18;60.61
64853;BME280;56050;55.558;-4.644;2023-03-03T00:18:33;103253.84;;;8.12;61.01
64853;BME280;56050;55.558;-4.644;2023-03-03T00:21:01;103264.44;;;8.09;60.87
64853;BME280;56050;55.558;-4.644;2023-03-03T00:23:36;103270.69;;;8.04;61.02
64853;BME280;56050;55.558;-4.644;2023-03-03T00:26:22;103265.16;;;8.01;60.89
64853;BME280;56050;55.558;-4.644;2023-03-03T00:28:50;103261.69;;;8.00;61.25
64853;BME280;56050;55.558;-4.644;2023-03-03T00:31:21;103258.81;;;7.97;61.20
64853;BME280;56050;55.558;-4.644;2023-03-03T00:33:52;103265.25;;;7.96;61.21
64853;BME280;56050;55.558;-4.644;2023-03-03T00:38:59;103271.25;;;7.93;61.21
64853;BME280;56050;55.558;-4.644;2023-03-03T00:41:36;103270.75;;;7.91;61.21
64853;BME280;56050;55.558;-4.644;2023-03-03T00:44:42;103265.03;;;7.84;61.52
64853;BME280;56050;55.558;-4.644;2023-03-03T00:49:43;103265.44;;;7.77;61.46
64853;BME280;56050;55.558;-4.644;2023-03-03T00:52:27;103260.88;;;7.78;61.58
64853;BME280;56050;55.558;-4.644;2023-03-03T00:54:54;103263.56;;;7.78;61.26
64853;BME280;56050;55.558;-4.644;2023-03-03T00:57:19;103271.31;;;7.79;61.31
64853;BME280;56050;55.558;-4.644;2023-03-03T00:59:45;103276.66;;;7.79;61.30
64853;BME280;56050;55.558;-4.644;2023-03-03T01:02:10;103274.78;;;7.80;61.25
64853;BME280;56050;55.558;-4.644;2023-03-03T01:04:35;103273.22;;;7.79;61.11
64853;BME280;56050;55.558;-4.644;2023-03-03T01:07:01;103271.81;;;7.81;61.18
64853;BME280;56050;55.558;-4.644;2023-03-03T01:09:27;103274.97;;;7.83;61.22
64853;BME280;56050;55.558;-4.644;2023-03-03T01:11:52;103271.97;;;7.85;61.20
64853;BME280;56050;55.558;-4.644;2023-03-03T01:14:17;103275.47;;;7.85;60.89
64853;BME280;56050;55.558;-4.644;2023-03-03T01:16:43;103281.63;;;7.86;61.06
64853;BME280;56050;55.558;-4.644;2023-03-03T01:19:08;103279.41;;;7.88;60.84
64853;BME280;56050;55.558;-4.644;2023-03-03T01:21:33;103280.69;;;7.90;60.92
64853;BME280;56050;55.558;-4.644;2023-03-03T01:23:59;103276.13;;;7.91;60.83
64853;BME280;56050;55.558;-4.644;2023-03-03T01:26:24;103280.69;;;7.90;60.82
64853;BME280;56050;55.558;-4.644;2023-03-03T01:28:50;103282.63;;;7.90;60.82
64853;BME280;56050;55.558;-4.644;2023-03-03T01:31:15;103276.72;;;7.88;60.87
64853;BME280;56050;55.558;-4.644;2023-03-03T01:33:40;103278.94;;;7.86;60.87
64853;BME280;56050;55.558;-4.644;2023-03-03T01:36:06;103278.13;;;7.85;60.97
64853;BME280;56050;55.558;-4.644;2023-03-03T01:38:35;103287.59;;;7.83;60.93
64853;BME280;56050;55.558;-4.644;2023-03-03T01:41:00;103285.22;;;7.81;61.15
64853;BME280;56050;55.558;-4.644;2023-03-03T01:43:26;103284.13;;;7.82;61.00
64853;BME280;56050;55.558;-4.644;2023-03-03T01:46:24;103281.44;;;7.82;61.08
64853;BME280;56050;55.558;-4.644;2023-03-03T01:48:57;103283.31;;;7.82;61.13
64853;BME280;56050;55.558;-4.644;2023-03-03T01:51:33;103275.38;;;7.77;60.97
64853;BME280;56050;55.558;-4.644;2023-03-03T01:54:03;103280.88;;;7.72;61.21
64853;BME280;56050;55.558;-4.644;2023-03-03T01:56:29;103280.69;;;7.68;61.49
64853;BME280;56050;55.558;-4.644;2023-03-03T01:58:59;103276.44;;;7.67;61.41
64853;BME280;56050;55.558;-4.644;2023-03-03T02:01:28;103279.72;;;7.64;61.48
64853;BME280;56050;55.558;-4.644;2023-03-03T02:03:54;103277.16;;;7.59;61.40
64853;BME280;56050;55.558;-4.644;2023-03-03T02:06:21;103282.81;;;7.57;61.61
64853;BME280;56050;55.558;-4.644;2023-03-03T02:09:11;103277.25;;;7.54;61.43
64853;BME280;56050;55.558;-4.644;2023-03-03T02:11:41;103286.41;;;7.53;61.62
64853;BME280;56050;55.558;-4.644;2023-03-03T02:14:09;103281.66;;;7.50;61.71
64853;BME280;56050;55.558;-4.644;2023-03-03T02:16:35;103274.19;;;7.47;61.78
64853;BME280;56050;55.558;-4.644;2023-03-03T02:19:00;103280.66;;;7.46;61.70
64853;BME280;56050;55.558;-4.644;2023-03-03T02:21:26;103288.22;;;7.44;61.71
64853;BME280;56050;55.558;-4.644;2023-03-03T02:26:29;103284.03;;;7.38;61.75
64853;BME280;56050;55.558;-4.644;2023-03-03T02:28:55;103288.44;;;7.34;61.89
64853;BME280;56050;55.558;-4.644;2023-03-03T02:31:22;103280.41;;;7.34;61.79
64853;BME280;56050;55.558;-4.644;2023-03-03T02:33:49;103293.00;;;7.33;61.85
64853;BME280;56050;55.558;-4.644;2023-03-03T02:36:21;103296.00;;;7.32;61.81
64853;BME280;56050;55.558;-4.644;2023-03-03T02:39:04;103285.88;;;7.29;61.68
64853;BME280;56050;55.558;-4.644;2023-03-03T02:44:20;103289.31;;;7.29;61.85
64853;BME280;56050;55.558;-4.644;2023-03-03T02:46:48;103288.56;;;7.29;61.73
64853;BME280;56050;55.558;-4.644;2023-03-03T02:49:17;103286.97;;;7.28;61.78
64853;BME280;56050;55.558;-4.644;2023-03-03T02:51:43;103285.06;;;7.28;61.90
64853;BME280;56050;55.558;-4.644;2023-03-03T02:54:10;103288.84;;;7.27;61.96
64853;BME280;56050;55.558;-4.644;2023-03-03T02:56:36;103290.44;;;7.28;61.77
64853;BME280;56050;55.558;-4.644;2023-03-03T02:59:02;103290.13;;;7.30;61.95
64853;BME280;56050;55.558;-4.644;2023-03-03T03:01:27;103288.84;;;7.27;61.96
64853;BME280;56050;55.558;-4.644;2023-03-03T03:03:56;103281.13;;;7.26;61.92
64853;BME280;56050;55.558;-4.644;2023-03-03T03:06:21;103285.69;;;7.25;61.88
64853;BME280;56050;55.558;-4.644;2023-03-03T03:08:47;103281.13;;;7.26;61.88
64853;BME280;56050;55.558;-4.644;2023-03-03T03:11:12;103280.59;;;7.24;61.86
64853;BME280;56050;55.558;-4.644;2023-03-03T03:13:38;103281.50;;;7.19;61.98
64853;BME280;56050;55.558;-4.644;2023-03-03T03:16:03;103282.31;;;7.20;62.08
64853;BME280;56050;55.558;-4.644;2023-03-03T03:18:29;103286.06;;;7.19;62.05
64853;BME280;56050;55.558;-4.644;2023-03-03T03:20:54;103283.09;;;7.20;62.10
64853;BME280;56050;55.558;-4.644;2023-03-03T03:23:20;103285.00;;;7.20;62.07
64853;BME280;56050;55.558;-4.644;2023-03-03T03:25:48;103279.13;;;7.18;62.12
64853;BME280;56050;55.558;-4.644;2023-03-03T03:28:15;103282.09;;;7.16;62.16
64853;BME280;56050;55.558;-4.644;2023-03-03T03:30:42;103286.19;;;7.14;62.05
64853;BME280;56050;55.558;-4.644;2023-03-03T03:33:11;103293.94;;;7.15;62.07
64853;BME280;56050;55.558;-4.644;2023-03-03T03:35:37;103289.88;;;7.18;62.17
64853;BME280;56050;55.558;-4.644;2023-03-03T03:38:04;103280.72;;;7.19;62.09
64853;BME280;56050;55.558;-4.644;2023-03-03T03:40:30;103290.84;;;7.22;61.85
64853;BME280;56050;55.558;-4.644;2023-03-03T03:42:55;103280.31;;;7.25;61.97
64853;BME280;56050;55.558;-4.644;2023-03-03T03:45:21;103288.25;;;7.30;61.77
64853;BME280;56050;55.558;-4.644;2023-03-03T03:47:46;103289.53;;;7.33;61.75
64853;BME280;56050;55.558;-4.644;2023-03-03T03:50:12;103281.47;;;7.33;61.94
64853;BME280;56050;55.558;-4.644;2023-03-03T03:52:37;103288.44;;;7.34;61.80
64853;BME280;56050;55.558;-4.644;2023-03-03T03:55:03;103286.25;;;7.36;61.62
64853;BME280;56050;55.558;-4.644;2023-03-03T03:57:29;103286.25;;;7.36;61.76
64853;BME280;56050;55.558;-4.644;2023-03-03T03:59:55;103282.47;;;7.37;61.62
64853;BME280;56050;55.558;-4.644;2023-03-03T04:02:20;103276.59;;;7.35;61.75
64853;BME280;56050;55.558;-4.644;2023-03-03T04:04:45;103269.69;;;7.34;61.49
64853;BME280;56050;55.558;-4.644;2023-03-03T04:07:11;103281.47;;;7.33;61.94
64853;BME280;56050;55.558;-4.644;2023-03-03T04:09:36;103276.44;;;7.31;61.79
64853;BME280;56050;55.558;-4.644;2023-03-03T04:12:02;103283.19;;;7.29;61.81
64853;BME280;56050;55.558;-4.644;2023-03-03T04:14:27;103284.88;;;7.25;61.79
64853;BME280;56050;55.558;-4.644;2023-03-03T04:16:53;103282.78;;;7.22;61.79
64853;BME280;56050;55.558;-4.644;2023-03-03T04:19:18;103283.38;;;7.19;61.99
64853;BME280;56050;55.558;-4.644;2023-03-03T04:21:43;103282.91;;;7.17;61.91
64853;BME280;56050;55.558;-4.644;2023-03-03T04:24:09;103278.63;;;7.16;61.87
64853;BME280;56050;55.558;-4.644;2023-03-03T04:26:34;103284.78;;;7.16;62.02
64853;BME280;56050;55.558;-4.644;2023-03-03T04:28:59;103279.13;;;7.18;61.99
64853;BME280;56050;55.558;-4.644;2023-03-03T04:31:26;103280.72;;;7.19;61.76
64853;BME280;56050;55.558;-4.644;2023-03-03T04:33:51;103281.03;;;7.17;61.88
64853;BME280;56050;55.558;-4.644;2023-03-03T04:36:18;103273.56;;;7.14;61.91
64853;BME280;56050;55.558;-4.644;2023-03-03T04:38:43;103280.81;;;7.14;61.84
64853;BME280;56050;55.558;-4.644;2023-03-03T04:41:08;103283.22;;;7.15;61.73
64853;BME280;56050;55.558;-4.644;2023-03-03T04:43:34;103282.91;;;7.17;61.73
64853;BME280;56050;55.558;-4.644;2023-03-03T04:45:59;103278.34;;;7.17;61.78
64853;BME280;56050;55.558;-4.644;2023-03-03T04:48:24;103278.34;;;7.17;61.82
64853;BME280;56050;55.558;-4.644;2023-03-03T04:50:50;103279.41;;;7.16;61.84
64853;BME280;56050;55.558;-4.644;2023-03-03T04:53:15;103273.56;;;7.14;61.86
64853;BME280;56050;55.558;-4.644;2023-03-03T04:55:41;103274.38;;;7.15;61.81
64853;BME280;56050;55.558;-4.644;2023-03-03T04:58:06;103276.75;;;7.16;61.96
64853;BME280;56050;55.558;-4.644;2023-03-03T05:00:34;103281.03;;;7.17;61.60
64853;BME280;56050;55.558;-4.644;2023-03-03T05:03:00;103279.91;;;7.18;61.80
64853;BME280;56050;55.558;-4.644;2023-03-03T05:05:25;103281.81;;;7.18;61.82
64853;BME280;56050;55.558;-4.644;2023-03-03T05:07:51;103283.22;;;7.15;61.87
64853;BME280;56050;55.558;-4.644;2023-03-03T05:10:16;103285.91;;;7.15;61.74
64853;BME280;56050;55.558;-4.644;2023-03-03T05:12:42;103288.06;;;7.13;61.91
64853;BME280;56050;55.558;-4.644;2023-03-03T05:15:08;103291.34;;;7.10;61.82
64853;BME280;56050;55.558;-4.644;2023-03-03T05:17:34;103287.38;;;7.07;62.08
64853;BME280;56050;55.558;-4.644;2023-03-03T05:19:59;103285.28;;;7.04;62.01
64853;BME280;56050;55.558;-4.644;2023-03-03T05:22:24;103279.75;;;7.01;62.23
64853;BME280;56050;55.558;-4.644;2023-03-03T05:24:50;103279.53;;;6.97;62.28
64853;BME280;56050;55.558;-4.644;2023-03-03T05:27:16;103281.75;;;6.95;62.31
64853;BME280;56050;55.558;-4.644;2023-03-03T05:29:42;103279.34;;;6.94;62.12
64853;BME280;56050;55.558;-4.644;2023-03-03T05:32:07;103278.25;;;6.95;62.33
64853;BME280;56050;55.558;-4.644;2023-03-03T05:34:32;103277.16;;;6.96;62.10
64853;BME280;56050;55.558;-4.644;2023-03-03T05:36:58;103277.66;;;6.98;62.25
64853;BME280;56050;55.558;-4.644;2023-03-03T05:39:23;103275.78;;;6.98;62.18
64853;BME280;56050;55.558;-4.644;2023-03-03T05:41:49;103280.03;;;6.99;62.13
64853;BME280;56050;55.558;-4.644;2023-03-03T05:44:14;103271.72;;;7.01;62.07
64853;BME280;56050;55.558;-4.644;2023-03-03T05:46:39;103276.28;;;7.00;62.18
64853;BME280;56050;55.558;-4.644;2023-03-03T05:49:07;103275.00;;;6.98;62.30
64853;BME280;56050;55.558;-4.644;2023-03-03T05:51:32;103277.16;;;6.96;62.17
64853;BME280;56050;55.558;-4.644;2023-03-03T05:53:58;103280.63;;;6.96;62.28
64853;BME280;56050;55.558;-4.644;2023-03-03T05:56:23;103278.53;;;6.93;62.19
64853;BME280;56050;55.558;-4.644;2023-03-03T05:58:49;103278.38;;;6.90;62.40
64853;BME280;56050;55.558;-4.644;2023-03-03T06:01:14;103278.16;;;6.86;62.36
64853;BME280;56050;55.558;-4.644;2023-03-03T06:03:39;103277.09;;;6.87;62.35
64853;BME280;56050;55.558;-4.644;2023-03-03T06:06:05;103283.53;;;6.86;62.25
64853;BME280;56050;55.558;-4.644;2023-03-03T06:08:31;103282.44;;;6.87;62.29
64853;BME280;56050;55.558;-4.644;2023-03-03T06:10:57;103270.59;;;6.88;62.29
64853;BME280;56050;55.558;-4.644;2023-03-03T06:13:22;103281.63;;;6.87;62.32
64853;BME280;56050;55.558;-4.644;2023-03-03T06:15:47;103284.31;;;6.87;62.50
64853;BME280;56050;55.558;-4.644;2023-03-03T06:18:13;103290.75;;;6.86;62.36
64853;BME280;56050;55.558;-4.644;2023-03-03T06:20:38;103292.63;;;6.85;62.24
64853;BME280;56050;55.558;-4.644;2023-03-03T06:23:04;103295.03;;;6.87;62.43
64853;BME280;56050;55.558;-4.644;2023-03-03T06:25:29;103304.38;;;6.89;62.34
64853;BME280;56050;55.558;-4.644;2023-03-03T06:27:55;103304.06;;;6.91;62.38
64853;BME280;56050;55.558;-4.644;2023-03-03T06:30:20;103303.47;;;6.94;62.36
64853;BME280;56050;55.558;-4.644;2023-03-03T06:32:46;103311.97;;;6.96;62.31
64853;BME280;56050;55.558;-4.644;2023-03-03T06:35:11;103307.75;;;6.95;62.09
64853;BME280;56050;55.558;-4.644;2023-03-03T06:37:37;103308.53;;;6.95;62.20
64853;BME280;56050;55.558;-4.644;2023-03-03T06:40:04;103315.19;;;6.98;62.19
64853;BME280;56050;55.558;-4.644;2023-03-03T06:42:29;103312.50;;;6.98;62.20
64853;BME280;56050;55.558;-4.644;2023-03-03T06:44:55;103311.41;;;6.99;62.22
64853;BME280;56050;55.558;-4.644;2023-03-03T06:47:20;103314.88;;;6.99;62.13
64853;BME280;56050;55.558;-4.644;2023-03-03T06:49:46;103316.47;;;7.00;62.23
64853;BME280;56050;55.558;-4.644;2023-03-03T06:52:19;103307.84;;;7.03;62.27
64853;BME280;56050;55.558;-4.644;2023-03-03T06:54:45;103302.16;;;7.05;62.25
64853;BME280;56050;55.558;-4.644;2023-03-03T06:57:22;103304.25;;;7.08;62.07
64853;BME280;56050;55.558;-4.644;2023-03-03T06:59:52;103306.94;;;7.08;62.04
64853;BME280;56050;55.558;-4.644;2023-03-03T07:02:20;103311.22;;;7.09;62.06
64853;BME280;56050;55.558;-4.644;2023-03-03T07:04:45;103310.41;;;7.08;62.13
64853;BME280;56050;55.558;-4.644;2023-03-03T07:09:39;103316.06;;;7.07;62.02
64853;BME280;56050;55.558;-4.644;2023-03-03T07:12:08;103322.81;;;7.04;62.34
64853;BME280;56050;55.558;-4.644;2023-03-03T07:14:45;103323.72;;;7.00;62.35
64853;BME280;56050;55.558;-4.644;2023-03-03T07:17:17;103330.47;;;6.97;62.44
64853;BME280;56050;55.558;-4.644;2023-03-03T07:19:43;103321.63;;;6.97;62.31
64853;BME280;56050;55.558;-4.644;2023-03-03T07:24:44;103328.06;;;6.96;62.49
64853;BME280;56050;55.558;-4.644;2023-03-03T07:27:11;103329.97;;;6.95;62.63
64853;BME280;56050;55.558;-4.644;2023-03-03T07:29:38;103331.53;;;6.96;62.64
64853;BME280;56050;55.558;-4.644;2023-03-03T07:32:32;103342.78;;;6.98;62.45
64853;BME280;56050;55.558;-4.644;2023-03-03T07:35:00;103338.41;;;7.02;62.53
64853;BME280;56050;55.558;-4.644;2023-03-03T07:37:38;103342.38;;;7.05;62.48
64853;BME280;56050;55.558;-4.644;2023-03-03T07:42:51;103349.53;;;7.09;62.42
64853;BME280;56050;55.558;-4.644;2023-03-03T07:45:27;103357.75;;;7.13;62.39
64853;BME280;56050;55.558;-4.644;2023-03-03T07:48:16;103350.50;;;7.14;62.37
64853;BME280;56050;55.558;-4.644;2023-03-03T07:50:43;103353.69;;;7.16;62.29
64853;BME280;56050;55.558;-4.644;2023-03-03T07:53:13;103355.59;;;7.15;62.24
64853;BME280;56050;55.558;-4.644;2023-03-03T07:55:39;103354.78;;;7.15;62.28
64853;BME280;56050;55.558;-4.644;2023-03-03T07:58:33;103363.63;;;7.15;62.24
64853;BME280;56050;55.558;-4.644;2023-03-03T08:03:45;103365.00;;;7.13;62.22
64853;BME280;56050;55.558;-4.644;2023-03-03T08:11:54;103362.94;;;7.09;62.49
64853;BME280;56050;55.558;-4.644;2023-03-03T08:14:26;103373.66;;;7.09;62.48
64853;BME280;56050;55.558;-4.644;2023-03-03T08:16:52;103374.94;;;7.12;62.52
64853;BME280;56050;55.558;-4.644;2023-03-03T08:19:18;103372.44;;;7.16;62.47
64853;BME280;56050;55.558;-4.644;2023-03-03T08:21:43;103378.31;;;7.18;62.40
64853;BME280;56050;55.558;-4.644;2023-03-03T08:24:09;103386.06;;;7.19;62.48
64853;BME280;56050;55.558;-4.644;2023-03-03T08:26:34;103388.16;;;7.22;62.41
64853;BME280;56050;55.558;-4.644;2023-03-03T08:28:59;103385.94;;;7.24;62.27
64853;BME280;56050;55.558;-4.644;2023-03-03T08:31:25;103386.47;;;7.26;62.35
64853;BME280;56050;55.558;-4.644;2023-03-03T08:33:51;103400.06;;;7.30;62.31
64853;BME280;56050;55.558;-4.644;2023-03-03T08:36:16;103387.94;;;7.32;62.23
64853;BME280;56050;55.558;-4.644;2023-03-03T08:38:41;103392.09;;;7.38;62.12
64853;BME280;56050;55.558;-4.644;2023-03-03T08:41:07;103399.28;;;7.43;62.18
64853;BME280;56050;55.558;-4.644;2023-03-03T08:43:33;103394.56;;;7.48;62.12
64853;BME280;56050;55.558;-4.644;2023-03-03T08:45:59;103405.22;;;7.53;62.14
64853;BME280;56050;55.558;-4.644;2023-03-03T08:48:25;103404.63;;;7.56;61.98
64853;BME280;56050;55.558;-4.644;2023-03-03T08:50:51;103395.19;;;7.59;62.02
64853;BME280;56050;55.558;-4.644;2023-03-03T08:53:17;103402.31;;;7.63;61.93
64853;BME280;56050;55.558;-4.644;2023-03-03T08:55:43;103399.03;;;7.66;61.73
64853;BME280;56050;55.558;-4.644;2023-03-03T08:58:08;103408.88;;;7.71;61.85
64853;BME280;56050;55.558;-4.644;2023-03-03T09:00:34;103407.47;;;7.74;61.91
64853;BME280;56050;55.558;-4.644;2023-03-03T09:02:59;103409.56;;;7.77;61.76
64853;BME280;56050;55.558;-4.644;2023-03-03T09:05:25;103410.84;;;7.79;61.71
64853;BME280;56050;55.558;-4.644;2023-03-03T09:07:52;103407.38;;;7.79;61.79
64853;BME280;56050;55.558;-4.644;2023-03-03T09:10:22;103410.56;;;7.81;61.81
64853;BME280;56050;55.558;-4.644;2023-03-03T09:12:52;103405.38;;;7.84;61.98
64853;BME280;56050;55.558;-4.644;2023-03-03T09:17:50;103403.06;;;7.91;61.77
64853;BME280;56050;55.558;-4.644;2023-03-03T09:25:50;103414.84;;;8.04;61.83
64853;BME280;56050;55.558;-4.644;2023-03-03T09:28:30;103411.09;;;8.05;61.84
64853;BME280;56050;55.558;-4.644;2023-03-03T09:30:59;103413.66;;;8.10;61.85
64853;BME280;56050;55.558;-4.644;2023-03-03T09:33:26;103406.88;;;8.12;61.65
64853;BME280;56050;55.558;-4.644;2023-03-03T09:36:02;103405.47;;;8.15;61.67
64853;BME280;56050;55.558;-4.644;2023-03-03T09:38:31;103409.44;;;8.17;61.56
64853;BME280;56050;55.558;-4.644;2023-03-03T09:49:47;103416.00;;;8.25;61.47
64853;BME280;56050;55.558;-4.644;2023-03-03T09:55:49;103420.56;;;8.24;61.86
64853;BME280;56050;55.558;-4.644;2023-03-03T10:03:55;103427.31;;;8.36;61.56
64853;BME280;56050;55.558;-4.644;2023-03-03T10:06:28;103427.31;;;8.36;61.50
64853;BME280;56050;55.558;-4.644;2023-03-03T10:09:11;103425.72;;;8.35;61.46
64853;BME280;56050;55.558;-4.644;2023-03-03T10:12:21;103431.69;;;8.32;61.30
64853;BME280;56050;55.558;-4.644;2023-03-03T10:31:44;103439.66;;;8.37;61.14
64853;BME280;56050;55.558;-4.644;2023-03-03T10:42:45;103445.63;;;8.34;60.24
64853;BME280;56050;55.558;-4.644;2023-03-03T10:53:57;103449.47;;;8.41;60.19
64853;BME280;56050;55.558;-4.644;2023-03-03T11:08:16;103443.44;;;8.58;58.77
64853;BME280;56050;55.558;-4.644;2023-03-03T11:21:26;103446.69;;;8.68;59.15
64853;BME280;56050;55.558;-4.644;2023-03-03T11:23:56;103459.19;;;8.73;58.45
64853;BME280;56050;55.558;-4.644;2023-03-03T11:32:23;103451.72;;;8.70;58.71
64853;BME280;56050;55.558;-4.644;2023-03-03T11:34:57;103450.03;;;8.74;58.54
64853;BME280;56050;55.558;-4.644;2023-03-03T11:40:27;103453.19;;;8.76;58.37
64853;BME280;56050;55.558;-4.644;2023-03-03T11:43:05;103446.41;;;8.78;58.39
64853;BME280;56050;55.558;-4.644;2023-03-03T11:45:42;103450.56;;;8.84;58.49
64853;BME280;56050;55.558;-4.644;2023-03-03T11:48:17;103448.72;;;8.94;58.52
64853;BME280;56050;55.558;-4.644;2023-03-03T11:50:57;103447.50;;;9.00;58.48
64853;BME280;56050;55.558;-4.644;2023-03-03T11:53:39;103446.88;;;9.03;58.27
64853;BME280;56050;55.558;-4.644;2023-03-03T11:58:57;103450.66;;;9.02;57.97
64853;BME280;56050;55.558;-4.644;2023-03-03T12:01:38;103454.16;;;9.02;58.01
64853;BME280;56050;55.558;-4.644;2023-03-03T12:04:21;103453.03;;;9.03;57.54
64853;BME280;56050;55.558;-4.644;2023-03-03T12:10:25;103450.66;;;9.02;57.79
64853;BME280;56050;55.558;-4.644;2023-03-03T12:13:05;103451.94;;;9.04;58.00
64853;BME280;56050;55.558;-4.644;2023-03-03T12:20:59;103442.69;;;9.19;57.34
64853;BME280;56050;55.558;-4.644;2023-03-03T12:29:04;103438.88;;;9.11;57.04
64853;BME280;56050;55.558;-4.644;2023-03-03T12:34:25;103437.13;;;9.15;57.11
64853;BME280;56050;55.558;-4.644;2023-03-03T12:37:09;103436.03;;;9.16;56.19
64853;BME280;56050;55.558;-4.644;2023-03-03T12:47:45;103419.53;;;9.09;56.24
64853;BME280;56050;55.558;-4.644;2023-03-03T13:10:00;103411.22;;;9.28;56.17
64853;BME280;56050;55.558;-4.644;2023-03-03T13:15:33;103418.41;;;9.41;56.23
64853;BME280;56050;55.558;-4.644;2023-03-03T13:31:23;103398.81;;;9.49;55.85
64853;BME280;56050;55.558;-4.644;2023-03-03T13:33:58;103398.19;;;9.52;55.85
64853;BME280;56050;55.558;-4.644;2023-03-03T13:36:41;103396.44;;;9.56;55.73
64853;BME280;56050;55.558;-4.644;2023-03-03T13:39:34;103385.03;;;9.59;55.68
64853;BME280;56050;55.558;-4.644;2023-03-03T13:42:12;103389.00;;;9.62;55.69
64853;BME280;56050;55.558;-4.644;2023-03-03T13:44:42;103397.88;;;9.62;55.50
64853;BME280;56050;55.558;-4.644;2023-03-03T13:47:13;103396.78;;;9.63;55.56
64853;BME280;56050;55.558;-4.644;2023-03-03T13:52:11;103396.47;;;9.65;55.26
64853;BME280;56050;55.558;-4.644;2023-03-03T14:06:16;103374.75;;;9.44;54.62
64853;BME280;56050;55.558;-4.644;2023-03-03T14:17:11;103364.16;;;9.56;54.96
64853;BME280;56050;55.558;-4.644;2023-03-03T14:19:27;103367.00;;;9.60;55.03
64853;BME280;56050;55.558;-4.644;2023-03-03T14:25:08;103355.91;;;9.61;54.72
64853;BME280;56050;55.558;-4.644;2023-03-03T14:30:36;103350.06;;;9.59;54.21
64853;BME280;56050;55.558;-4.644;2023-03-03T14:33:15;103342.63;;;9.56;54.49
64853;BME280;56050;55.558;-4.644;2023-03-03T14:35:47;103347.84;;;9.53;54.39
64853;BME280;56050;55.558;-4.644;2023-03-03T14:38:15;103354.00;;;9.53;54.48
64853;BME280;56050;55.558;-4.644;2023-03-03T14:40:43;103359.72;;;9.52;54.04
64853;BME280;56050;55.558;-4.644;2023-03-03T14:45:55;103352.28;;;9.49;54.46
64853;BME280;56050;55.558;-4.644;2023-03-03T14:48:25;103353.22;;;9.53;54.49
64853;BME280;56050;55.558;-4.644;2023-03-03T14:50:58;103354.19;;;9.57;54.36
64853;BME280;56050;55.558;-4.644;2023-03-03T14:53:37;103348.31;;;9.55;54.36
64853;BME280;56050;55.558;-4.644;2023-03-03T14:58:42;103348.16;;;9.60;54.31
64853;BME280;56050;55.558;-4.644;2023-03-03T15:01:30;103348.97;;;9.60;54.25
64853;BME280;56050;55.558;-4.644;2023-03-03T15:06:47;103339.47;;;9.63;54.20
64853;BME280;56050;55.558;-4.644;2023-03-03T15:09:38;103342.78;;;9.68;54.04
64853;BME280;56050;55.558;-4.644;2023-03-03T15:12:24;103344.41;;;9.69;54.08
64853;BME280;56050;55.558;-4.644;2023-03-03T15:14:52;103335.66;;;9.72;54.03
64853;BME280;56050;55.558;-4.644;2023-03-03T15:17:29;103336.47;;;9.73;53.96
64853;BME280;56050;55.558;-4.644;2023-03-03T15:25:23;103329.81;;;9.70;52.95
64853;BME280;56050;55.558;-4.644;2023-03-03T15:28:23;103340.25;;;9.63;53.46
64853;BME280;56050;55.558;-4.644;2023-03-03T15:33:45;103334.88;;;9.55;52.59
64853;BME280;56050;55.558;-4.644;2023-03-03T15:39:23;103333.75;;;9.38;53.13
64853;BME280;56050;55.558;-4.644;2023-03-03T15:42:04;103332.16;;;9.37;52.97
64853;BME280;56050;55.558;-4.644;2023-03-03T15:47:42;103329.28;;;9.34;53.00
64853;BME280;56050;55.558;-4.644;2023-03-03T15:58:35;103326.72;;;9.20;52.45
64853;BME280;56050;55.558;-4.644;2023-03-03T16:01:16;103334.66;;;9.17;52.53
64853;BME280;56050;55.558;-4.644;2023-03-03T16:04:11;103325.59;;;9.13;52.62
64853;BME280;56050;55.558;-4.644;2023-03-03T16:11:52;103329.88;;;9.14;52.20
64853;BME280;56050;55.558;-4.644;2023-03-03T16:19:58;103318.13;;;9.01;52.14
64853;BME280;56050;55.558;-4.644;2023-03-03T16:25:34;103324.13;;;8.98;52.33
64853;BME280;56050;55.558;-4.644;2023-03-03T16:33:38;103320.63;;;8.98;52.14
64853;BME280;56050;55.558;-4.644;2023-03-03T16:41:05;103322.88;;;9.04;52.42
64853;BME280;56050;55.558;-4.644;2023-03-03T16:46:37;103332.25;;;9.15;52.18
64853;BME280;56050;55.558;-4.644;2023-03-03T16:52:16;103331.16;;;9.16;52.43
64853;BME280;56050;55.558;-4.644;2023-03-03T17:05:12;103335.75;;;9.24;52.34
64853;BME280;56050;55.558;-4.644;2023-03-03T17:07:52;103336.72;;;9.28;52.31
64853;BME280;56050;55.558;-4.644;2023-03-03T17:18:51;103330.72;;;9.40;52.28
64853;BME280;56050;55.558;-4.644;2023-03-03T17:29:21;103334.66;;;9.34;52.27
64853;BME280;56050;55.558;-4.644;2023-03-03T17:32:20;103346.03;;;9.31;52.28
64853;BME280;56050;55.558;-4.644;2023-03-03T17:35:23;103340.97;;;9.21;51.42
64853;BME280;56050;55.558;-4.644;2023-03-03T17:41:32;103325.53;;;8.96;52.03
64853;BME280;56050;55.558;-4.644;2023-03-03T17:46:17;103341.31;;;8.80;52.33
64853;BME280;56050;55.558;-4.644;2023-03-03T17:48:57;103331.47;;;8.75;52.48
64853;BME280;56050;55.558;-4.644;2023-03-03T17:57:07;103340.47;;;8.71;52.68
64853;BME280;56050;55.558;-4.644;2023-03-03T17:59:54;103346.94;;;8.70;52.64
64853;BME280;56050;55.558;-4.644;2023-03-03T18:20:11;103369.50;;;8.38;52.95
64853;BME280;56050;55.558;-4.644;2023-03-03T18:22:48;103377.09;;;8.36;52.99
64853;BME280;56050;55.558;-4.644;2023-03-03T18:25:53;103370.53;;;8.28;52.88
64853;BME280;56050;55.558;-4.644;2023-03-03T18:28:35;103373.84;;;8.25;52.86
64853;BME280;56050;55.558;-4.644;2023-03-03T18:31:01;103368.47;;;8.25;52.94
64853;BME280;56050;55.558;-4.644;2023-03-03T18:36:33;103373.16;;;8.20;53.01